createdAt,value
2023-01-19T00:00:45.627Z,998.57
2023-01-19T00:01:45.595Z,998.61
2023-01-19T00:02:45.632Z,998.64
2023-01-19T00:03:45.614Z,998.63
2023-01-19T00:04:45.597Z,998.65
2023-01-19T00:05:45.593Z,998.65
2023-01-19T00:06:45.567Z,998.65
2023-01-19T00:07:45.563Z,998.62
2023-01-19T00:08:45.575Z,998.61
2023-01-19T00:09:45.555Z,998.58
2023-01-19T00:10:45.550Z,998.56
2023-01-19T00:11:45.548Z,998.58
2023-01-19T00:12:45.547Z,998.56
2023-01-19T00:13:45.527Z,998.56
2023-01-19T00:14:45.525Z,998.56
2023-01-19T00:15:45.560Z,998.57
2023-01-19T00:16:45.520Z,998.59
2023-01-19T00:17:45.520Z,998.58
2023-01-19T00:18:45.525Z,998.61
2023-01-19T00:19:45.524Z,998.60
2023-01-19T00:20:45.508Z,998.60
2023-01-19T00:21:45.484Z,998.58
2023-01-19T00:22:45.497Z,998.64
2023-01-19T00:23:45.488Z,998.58
2023-01-19T00:24:45.480Z,998.59
2023-01-19T00:25:45.456Z,998.58
2023-01-19T00:26:45.458Z,998.57
2023-01-19T00:27:45.471Z,998.57
2023-01-19T00:28:45.462Z,998.58
2023-01-19T00:29:45.453Z,998.60
2023-01-19T00:30:45.448Z,998.57
2023-01-19T00:31:45.491Z,998.60
2023-01-19T00:32:45.436Z,998.66
2023-01-19T00:33:45.411Z,998.60
2023-01-19T00:34:45.423Z,998.66
2023-01-19T00:35:45.448Z,998.64
2023-01-19T00:36:45.418Z,998.65
2023-01-19T00:37:45.400Z,998.62
2023-01-19T00:38:45.412Z,998.61
2023-01-19T00:39:45.394Z,998.57
2023-01-19T00:40:45.390Z,998.61
2023-01-19T00:41:45.371Z,998.61
2023-01-19T00:42:45.371Z,998.62
2023-01-19T00:43:45.357Z,998.62
2023-01-19T00:44:45.365Z,998.63
2023-01-19T00:45:45.385Z,998.61
2023-01-19T00:46:45.350Z,998.63
2023-01-19T00:47:45.356Z,998.62
2023-01-19T00:48:45.341Z,998.59
2023-01-19T00:49:45.322Z,998.57
2023-01-19T00:50:45.334Z,998.53
2023-01-19T00:51:45.359Z,998.53
2023-01-19T00:52:45.316Z,998.54
2023-01-19T00:53:45.306Z,998.52
2023-01-19T00:54:45.305Z,998.50
2023-01-19T00:55:45.313Z,998.47
2023-01-19T00:56:45.312Z,998.50
2023-01-19T00:57:45.277Z,998.48
2023-01-19T00:58:45.274Z,998.44
2023-01-19T00:59:45.294Z,998.47
2023-01-19T01:00:45.282Z,998.46
2023-01-19T01:01:46.572Z,998.44
2023-01-19T01:02:45.403Z,998.43
2023-01-19T01:03:45.261Z,998.46
2023-01-19T01:04:45.242Z,998.47
2023-01-19T01:05:45.237Z,998.47
2023-01-19T01:06:45.246Z,998.49
2023-01-19T01:07:45.297Z,998.50
2023-01-19T01:08:45.225Z,998.52
2023-01-19T01:09:45.219Z,998.48
2023-01-19T01:10:45.216Z,998.49
2023-01-19T01:11:45.204Z,998.49
2023-01-19T01:12:57.509Z,998.48
2023-01-19T01:13:45.185Z,998.54
2023-01-19T01:14:45.180Z,998.55
2023-01-19T01:15:45.196Z,998.55
2023-01-19T01:16:45.293Z,998.51
2023-01-19T01:17:45.175Z,998.48
2023-01-19T01:18:45.166Z,998.53
2023-01-19T01:19:45.169Z,998.52
2023-01-19T01:20:45.157Z,998.53
2023-01-19T01:21:45.144Z,998.49
2023-01-19T01:22:45.129Z,998.55
2023-01-19T01:23:45.178Z,998.56
2023-01-19T01:24:45.121Z,998.56
2023-01-19T01:25:45.119Z,998.58
2023-01-19T01:26:45.134Z,998.62
2023-01-19T01:27:45.121Z,998.61
2023-01-19T01:28:45.103Z,998.62
2023-01-19T01:29:45.108Z,998.60
2023-01-19T01:30:45.089Z,998.56
2023-01-19T01:31:45.151Z,998.54
2023-01-19T01:32:45.093Z,998.58
2023-01-19T01:33:45.073Z,998.60
2023-01-19T01:34:45.061Z,998.59
2023-01-19T01:35:45.065Z,998.64
2023-01-19T01:36:45.066Z,998.66
2023-01-19T01:37:45.067Z,998.70
2023-01-19T01:38:45.064Z,998.74
2023-01-19T01:39:45.063Z,998.79
2023-01-19T01:40:45.034Z,998.79
2023-01-19T01:41:45.028Z,998.79
2023-01-19T01:42:45.040Z,998.84
2023-01-19T01:43:45.082Z,998.84
2023-01-19T01:44:45.046Z,998.79
2023-01-19T01:45:45.075Z,998.85
2023-01-19T01:46:45.010Z,998.90
2023-01-19T01:47:45.005Z,998.92
2023-01-19T01:48:44.980Z,998.94
2023-01-19T01:49:45.009Z,998.94
2023-01-19T01:50:44.990Z,998.94
2023-01-19T01:51:44.971Z,998.96
2023-01-19T01:52:44.976Z,998.95
2023-01-19T01:53:44.977Z,998.90
2023-01-19T01:54:44.965Z,998.92
2023-01-19T01:55:44.966Z,998.87
2023-01-19T01:56:44.937Z,998.90
2023-01-19T01:57:44.938Z,998.91
2023-01-19T01:58:44.941Z,998.84
2023-01-19T01:59:44.937Z,998.83
2023-01-19T02:00:44.946Z,998.82
2023-01-19T02:01:45.074Z,998.81
2023-01-19T02:02:44.904Z,998.81
2023-01-19T02:03:44.900Z,998.80
2023-01-19T02:04:44.891Z,998.82
2023-01-19T02:05:44.905Z,998.85
2023-01-19T02:06:44.884Z,998.79
2023-01-19T02:07:44.876Z,998.78
2023-01-19T02:08:44.886Z,998.77
2023-01-19T02:09:44.875Z,998.74
2023-01-19T02:10:44.861Z,998.77
2023-01-19T02:11:44.875Z,998.76
2023-01-19T02:12:44.863Z,998.77
2023-01-19T02:13:44.865Z,998.78
2023-01-19T02:14:44.850Z,998.72
2023-01-19T02:15:44.840Z,998.74
2023-01-19T02:16:44.866Z,998.74
2023-01-19T02:17:44.843Z,998.72
2023-01-19T02:18:44.839Z,998.75
2023-01-19T02:19:44.814Z,998.76
2023-01-19T02:20:44.815Z,998.71
2023-01-19T02:21:44.809Z,998.74
2023-01-19T02:22:44.801Z,998.72
2023-01-19T02:23:44.834Z,998.75
2023-01-19T02:24:44.798Z,998.74
2023-01-19T02:25:44.797Z,998.75
2023-01-19T02:26:44.792Z,998.75
2023-01-19T02:27:44.790Z,998.76
2023-01-19T02:28:44.813Z,998.75
2023-01-19T02:29:44.767Z,998.71
2023-01-19T02:30:44.811Z,998.70
2023-01-19T02:31:44.752Z,998.69
2023-01-19T02:32:44.743Z,998.69
2023-01-19T02:33:44.739Z,998.69
2023-01-19T02:34:44.734Z,998.70
2023-01-19T02:35:44.721Z,998.64
2023-01-19T02:36:44.760Z,998.64
2023-01-19T02:37:44.731Z,998.63
2023-01-19T02:38:44.735Z,998.64
2023-01-19T02:39:44.730Z,998.67
2023-01-19T02:40:44.716Z,998.66
2023-01-19T02:41:44.710Z,998.62
2023-01-19T02:42:44.712Z,998.61
2023-01-19T02:43:44.713Z,998.63
2023-01-19T02:44:44.677Z,998.63
2023-01-19T02:45:44.687Z,998.64
2023-01-19T02:46:44.650Z,998.63
2023-01-19T02:47:44.647Z,998.62
2023-01-19T02:48:44.655Z,998.62
2023-01-19T02:49:44.650Z,998.60
2023-01-19T02:50:44.629Z,998.60
2023-01-19T02:51:44.645Z,998.61
2023-01-19T02:52:44.612Z,998.58
2023-01-19T02:53:44.637Z,998.60
2023-01-19T02:54:44.612Z,998.61
2023-01-19T02:55:44.614Z,998.64
2023-01-19T02:56:44.603Z,998.69
2023-01-19T02:57:44.595Z,998.64
2023-01-19T02:58:44.600Z,998.67
2023-01-19T02:59:44.611Z,998.68
2023-01-19T03:00:44.593Z,998.67
2023-01-19T03:01:44.771Z,998.70
2023-01-19T03:02:44.574Z,998.69
2023-01-19T03:03:44.554Z,998.72
2023-01-19T03:04:44.558Z,998.71
2023-01-19T03:05:44.548Z,998.71
2023-01-19T03:06:44.539Z,998.71
2023-01-19T03:07:44.543Z,998.71
2023-01-19T03:08:44.519Z,998.75
2023-01-19T03:09:44.521Z,998.70
2023-01-19T03:10:44.514Z,998.73
2023-01-19T03:11:44.507Z,998.73
2023-01-19T03:12:44.504Z,998.72
2023-01-19T03:13:44.506Z,998.74
2023-01-19T03:14:44.504Z,998.74
2023-01-19T03:15:44.678Z,998.74
2023-01-19T03:16:44.522Z,998.70
2023-01-19T03:17:44.490Z,998.77
2023-01-19T03:18:44.463Z,998.70
2023-01-19T03:19:44.460Z,998.71
2023-01-19T03:20:44.450Z,998.71
2023-01-19T03:21:44.467Z,998.73
2023-01-19T03:22:44.455Z,998.72
2023-01-19T03:23:44.451Z,998.68
2023-01-19T03:24:44.455Z,998.67
2023-01-19T03:25:44.442Z,998.71
2023-01-19T03:26:44.417Z,998.74
2023-01-19T03:27:44.430Z,998.72
2023-01-19T03:28:44.405Z,998.74
2023-01-19T03:29:44.407Z,998.78
2023-01-19T03:30:44.445Z,998.77
2023-01-19T03:31:44.448Z,998.79
2023-01-19T03:32:44.408Z,998.79
2023-01-19T03:33:44.394Z,998.74
2023-01-19T03:34:44.382Z,998.71
2023-01-19T03:35:44.376Z,998.71
2023-01-19T03:36:44.379Z,998.72
2023-01-19T03:37:44.375Z,998.72
2023-01-19T03:38:44.391Z,998.66
2023-01-19T03:39:44.371Z,998.69
2023-01-19T03:40:44.350Z,998.74
2023-01-19T03:41:44.352Z,998.70
2023-01-19T03:42:44.356Z,998.69
2023-01-19T03:43:44.327Z,998.64
2023-01-19T03:44:44.315Z,998.70
2023-01-19T03:45:44.313Z,998.71
2023-01-19T03:46:44.305Z,998.73
2023-01-19T03:47:44.338Z,998.72
2023-01-19T03:48:44.306Z,998.75
2023-01-19T03:49:44.333Z,998.75
2023-01-19T03:50:44.299Z,998.78
2023-01-19T03:51:44.277Z,998.76
2023-01-19T03:52:44.282Z,998.78
2023-01-19T03:53:44.268Z,998.80
2023-01-19T03:54:44.274Z,998.76
2023-01-19T03:55:44.259Z,998.78
2023-01-19T03:56:44.255Z,998.77
2023-01-19T03:57:44.260Z,998.76
2023-01-19T03:58:44.249Z,998.75
2023-01-19T03:59:44.232Z,998.80
2023-01-19T04:00:44.241Z,998.76
2023-01-19T04:01:44.375Z,998.80
2023-01-19T04:02:44.295Z,998.81
2023-01-19T04:03:44.254Z,998.77
2023-01-19T04:04:44.200Z,998.82
2023-01-19T04:05:44.218Z,998.79
2023-01-19T04:06:44.225Z,998.76
2023-01-19T04:07:44.182Z,998.78
2023-01-19T04:08:44.201Z,998.79
2023-01-19T04:09:44.171Z,998.82
2023-01-19T04:10:44.175Z,998.80
2023-01-19T04:11:44.179Z,998.81
2023-01-19T04:12:44.156Z,998.82
2023-01-19T04:13:44.163Z,998.77
2023-01-19T04:14:44.175Z,998.79
2023-01-19T04:15:44.165Z,998.79
2023-01-19T04:16:44.133Z,998.81
2023-01-19T04:17:44.120Z,998.78
2023-01-19T04:18:44.133Z,998.76
2023-01-19T04:19:44.221Z,998.76
2023-01-19T04:20:44.103Z,998.73
2023-01-19T04:21:44.123Z,998.74
2023-01-19T04:22:44.096Z,998.73
2023-01-19T04:23:44.094Z,998.77
2023-01-19T04:24:44.089Z,998.73
2023-01-19T04:25:44.098Z,998.74
2023-01-19T04:26:44.071Z,998.73
2023-01-19T04:27:44.069Z,998.68
2023-01-19T04:28:44.063Z,998.70
2023-01-19T04:29:44.071Z,998.68
2023-01-19T04:30:44.058Z,998.69
2023-01-19T04:31:44.063Z,998.65
2023-01-19T04:32:44.066Z,998.64
2023-01-19T04:33:44.050Z,998.68
2023-01-19T04:34:44.040Z,998.66
2023-01-19T04:35:44.058Z,998.67
2023-01-19T04:36:44.026Z,998.66
2023-01-19T04:37:44.015Z,998.66
2023-01-19T04:38:44.050Z,998.70
2023-01-19T04:39:43.999Z,998.71
2023-01-19T04:40:43.994Z,998.72
2023-01-19T04:41:44.004Z,998.72
2023-01-19T04:42:43.989Z,998.72
2023-01-19T04:43:43.991Z,998.71
2023-01-19T04:44:43.973Z,998.72
2023-01-19T04:45:43.976Z,998.72
2023-01-19T04:46:44.006Z,998.74
2023-01-19T04:47:43.963Z,998.74
2023-01-19T04:48:43.948Z,998.80
2023-01-19T04:49:43.942Z,998.79
2023-01-19T04:50:43.949Z,998.80
2023-01-19T04:51:43.950Z,998.83
2023-01-19T04:52:43.918Z,998.79
2023-01-19T04:53:43.932Z,998.79
2023-01-19T04:54:43.930Z,998.82
2023-01-19T04:55:43.913Z,998.85
2023-01-19T04:56:43.902Z,998.80
2023-01-19T04:57:43.904Z,998.82
2023-01-19T04:58:43.902Z,998.85
2023-01-19T04:59:43.887Z,998.79
2023-01-19T05:00:43.877Z,998.81
2023-01-19T05:01:43.956Z,998.84
2023-01-19T05:02:43.922Z,998.87
2023-01-19T05:03:43.861Z,998.85
2023-01-19T05:04:43.858Z,998.90
2023-01-19T05:05:43.854Z,998.83
2023-01-19T05:06:43.847Z,998.82
2023-01-19T05:07:43.867Z,998.84
2023-01-19T05:08:45.370Z,998.78
2023-01-19T05:09:43.838Z,998.79
2023-01-19T05:10:43.815Z,998.82
2023-01-19T05:11:43.827Z,998.84
2023-01-19T05:12:43.818Z,998.86
2023-01-19T05:13:43.817Z,998.83
2023-01-19T05:14:43.808Z,998.84
2023-01-19T05:15:43.816Z,998.87
2023-01-19T05:16:43.810Z,998.84
2023-01-19T05:17:43.798Z,998.87
2023-01-19T05:18:43.780Z,998.88
2023-01-19T05:19:43.776Z,998.90
2023-01-19T05:20:43.778Z,998.89
2023-01-19T05:21:43.779Z,998.89
2023-01-19T05:22:43.762Z,998.94
2023-01-19T05:23:43.759Z,998.90
2023-01-19T05:24:43.738Z,998.93
2023-01-19T05:25:43.741Z,998.98
2023-01-19T05:26:43.742Z,998.95
2023-01-19T05:27:43.720Z,999.01
2023-01-19T05:28:43.731Z,998.96
2023-01-19T05:29:43.727Z,998.96
2023-01-19T05:30:43.780Z,999.00
2023-01-19T05:31:43.832Z,998.97
2023-01-19T05:32:43.694Z,999.00
2023-01-19T05:33:43.696Z,999.00
2023-01-19T05:34:43.685Z,998.97
2023-01-19T05:35:43.695Z,999.01
2023-01-19T05:36:43.682Z,999.06
2023-01-19T05:37:43.661Z,999.09
2023-01-19T05:38:43.657Z,999.07
2023-01-19T05:39:43.676Z,999.02
2023-01-19T05:40:43.669Z,999.03
2023-01-19T05:41:43.654Z,999.04
2023-01-19T05:42:43.639Z,999.03
2023-01-19T05:43:43.628Z,999.06
2023-01-19T05:44:43.640Z,999.07
2023-01-19T05:45:43.615Z,999.07
2023-01-19T05:46:43.680Z,999.07
2023-01-19T05:47:43.612Z,999.08
2023-01-19T05:48:43.600Z,999.09
2023-01-19T05:49:43.592Z,999.12
2023-01-19T05:50:43.598Z,999.15
2023-01-19T05:51:43.576Z,999.15
2023-01-19T05:52:43.590Z,999.14
2023-01-19T05:53:43.581Z,999.15
2023-01-19T05:54:43.591Z,999.14
2023-01-19T05:55:43.631Z,999.16
2023-01-19T05:56:43.561Z,999.13
2023-01-19T05:57:43.572Z,999.13
2023-01-19T05:58:43.547Z,999.15
2023-01-19T05:59:43.536Z,999.14
2023-01-19T06:00:43.558Z,999.13
2023-01-19T06:01:43.676Z,999.13
2023-01-19T06:02:43.673Z,999.17
2023-01-19T06:03:43.522Z,999.17
2023-01-19T06:04:43.572Z,999.13
2023-01-19T06:05:43.520Z,999.10
2023-01-19T06:06:43.507Z,999.06
2023-01-19T06:07:43.503Z,999.11
2023-01-19T06:08:43.504Z,999.05
2023-01-19T06:09:43.499Z,999.03
2023-01-19T06:10:43.500Z,999.04
2023-01-19T06:11:43.505Z,999.04
2023-01-19T06:12:43.484Z,999.03
2023-01-19T06:13:43.476Z,999.06
2023-01-19T06:14:43.461Z,999.03
2023-01-19T06:15:43.473Z,999.05
2023-01-19T06:16:43.572Z,999.08
2023-01-19T06:17:43.464Z,999.10
2023-01-19T06:18:43.442Z,999.10
2023-01-19T06:19:43.451Z,999.11
2023-01-19T06:20:43.426Z,999.13
2023-01-19T06:21:43.432Z,999.13
2023-01-19T06:22:43.429Z,999.11
2023-01-19T06:23:43.422Z,999.13
2023-01-19T06:24:43.407Z,999.11
2023-01-19T06:25:43.396Z,999.10
2023-01-19T06:26:43.410Z,999.14
2023-01-19T06:27:43.420Z,999.11
2023-01-19T06:28:43.398Z,999.22
2023-01-19T06:29:43.389Z,999.15
2023-01-19T06:30:43.492Z,999.21
2023-01-19T06:31:43.442Z,999.25
2023-01-19T06:32:43.373Z,999.20
2023-01-19T06:33:43.379Z,999.25
2023-01-19T06:34:43.361Z,999.30
2023-01-19T06:35:43.348Z,999.26
2023-01-19T06:36:43.353Z,999.26
2023-01-19T06:37:43.352Z,999.29
2023-01-19T06:38:43.368Z,999.28
2023-01-19T06:39:43.342Z,999.31
2023-01-19T06:40:43.339Z,999.30
2023-01-19T06:41:43.343Z,999.32
2023-01-19T06:42:43.345Z,999.29
2023-01-19T06:43:43.401Z,999.34
2023-01-19T06:44:43.320Z,999.37
2023-01-19T06:45:45.202Z,999.38
2023-01-19T06:46:43.334Z,999.39
2023-01-19T06:47:43.304Z,999.38
2023-01-19T06:48:43.316Z,999.39
2023-01-19T06:49:43.321Z,999.37
2023-01-19T06:50:43.302Z,999.40
2023-01-19T06:51:43.283Z,999.43
2023-01-19T06:52:43.286Z,999.44
2023-01-19T06:53:43.285Z,999.44
2023-01-19T06:54:43.266Z,999.45
2023-01-19T06:55:43.268Z,999.49
2023-01-19T06:56:43.270Z,999.50
2023-01-19T06:57:43.263Z,999.50
2023-01-19T06:58:43.268Z,999.54
2023-01-19T06:59:43.281Z,999.54
2023-01-19T07:00:43.383Z,999.54
2023-01-19T07:01:43.433Z,999.63
2023-01-19T07:02:43.296Z,999.56
2023-01-19T07:03:44.489Z,999.58
2023-01-19T07:04:43.231Z,999.57
2023-01-19T07:05:43.213Z,999.63
2023-01-19T07:06:43.229Z,999.62
2023-01-19T07:07:43.286Z,999.64
2023-01-19T07:08:43.213Z,999.68
2023-01-19T07:09:43.207Z,999.71
2023-01-19T07:11:25.125Z,999.70
2023-01-19T07:11:43.209Z,999.71
2023-01-19T07:12:43.203Z,999.68
2023-01-19T07:13:43.191Z,999.73
2023-01-19T07:14:43.180Z,999.73
2023-01-19T07:15:43.204Z,999.77
2023-01-19T07:16:43.227Z,999.75
2023-01-19T07:17:43.232Z,999.75
2023-01-19T07:18:43.224Z,999.74
2023-01-19T07:19:43.193Z,999.78
2023-01-19T07:20:43.152Z,999.81
2023-01-19T07:21:43.161Z,999.81
2023-01-19T07:22:43.156Z,999.81
2023-01-19T07:23:43.213Z,999.80
2023-01-19T07:24:43.155Z,999.87
2023-01-19T07:25:43.144Z,999.87
2023-01-19T07:26:43.142Z,999.87
2023-01-19T07:27:43.282Z,999.81
2023-01-19T07:28:43.117Z,999.85
2023-01-19T07:29:43.121Z,999.82
2023-01-19T07:30:43.228Z,999.89
2023-01-19T07:31:43.176Z,999.91
2023-01-19T07:32:43.103Z,999.93
2023-01-19T07:33:43.136Z,999.91
2023-01-19T07:34:43.119Z,999.93
2023-01-19T07:35:43.108Z,999.94
2023-01-19T07:36:43.133Z,999.94
2023-01-19T07:37:43.077Z,999.94
2023-01-19T07:38:43.073Z,999.98
2023-01-19T07:39:43.078Z,999.99
2023-01-19T07:40:43.097Z,1000.01
2023-01-19T07:41:43.060Z,999.99
2023-01-19T07:42:43.063Z,1000.01
2023-01-19T07:43:43.087Z,1000.01
2023-01-19T07:44:43.068Z,1000.00
2023-01-19T07:45:43.173Z,999.98
2023-01-19T07:46:43.054Z,1000.03
2023-01-19T07:47:43.078Z,1000.02
2023-01-19T07:48:43.062Z,1000.01
2023-01-19T07:49:43.047Z,1000.02
2023-01-19T07:50:43.028Z,1000.00
2023-01-19T07:51:43.033Z,1000.01
2023-01-19T07:52:43.021Z,1000.01
2023-01-19T07:53:43.030Z,1000.04
2023-01-19T07:54:43.030Z,1000.04
2023-01-19T07:55:43.009Z,1000.02
2023-01-19T07:56:43.027Z,1000.03
2023-01-19T07:57:43.001Z,1000.05
2023-01-19T07:58:43.008Z,1000.11
2023-01-19T07:59:42.980Z,1000.05
2023-01-19T08:00:42.981Z,1000.10
2023-01-19T08:01:43.072Z,1000.12
2023-01-19T08:02:42.982Z,1000.07
2023-01-19T08:03:42.991Z,1000.14
2023-01-19T08:04:43.105Z,1000.12
2023-01-19T08:05:43.033Z,1000.13
2023-01-19T08:06:42.962Z,1000.17
2023-01-19T08:07:42.939Z,1000.15
2023-01-19T08:08:42.941Z,1000.16
2023-01-19T08:09:42.955Z,1000.19
2023-01-19T08:10:42.998Z,1000.25
2023-01-19T08:11:42.936Z,1000.27
2023-01-19T08:12:42.933Z,1000.24
2023-01-19T08:13:42.923Z,1000.28
2023-01-19T08:14:42.929Z,1000.28
2023-01-19T08:15:43.007Z,1000.25
2023-01-19T08:16:42.924Z,1000.27
2023-01-19T08:17:43.019Z,1000.26
2023-01-19T08:18:42.903Z,1000.31
2023-01-19T08:19:42.932Z,1000.32
2023-01-19T08:20:42.907Z,1000.34
2023-01-19T08:21:42.892Z,1000.32
2023-01-19T08:22:42.912Z,1000.36
2023-01-19T08:23:42.927Z,1000.37
2023-01-19T08:24:42.867Z,1000.33
2023-01-19T08:25:42.880Z,1000.35
2023-01-19T08:26:42.866Z,1000.40
2023-01-19T08:27:42.857Z,1000.43
2023-01-19T08:28:42.856Z,1000.44
2023-01-19T08:29:42.836Z,1000.47
2023-01-19T08:30:42.920Z,1000.50
2023-01-19T08:31:42.993Z,1000.47
2023-01-19T08:32:42.839Z,1000.49
2023-01-19T08:33:42.831Z,1000.53
2023-01-19T08:34:42.820Z,1000.57
2023-01-19T08:35:42.834Z,1000.54
2023-01-19T08:36:42.815Z,1000.53
2023-01-19T08:37:42.809Z,1000.56
2023-01-19T08:38:42.825Z,1000.54
2023-01-19T08:39:42.787Z,1000.63
2023-01-19T08:40:42.797Z,1000.66
2023-01-19T08:41:42.778Z,1000.66
2023-01-19T08:42:42.798Z,1000.67
2023-01-19T08:43:42.787Z,1000.71
2023-01-19T08:44:57.381Z,1000.70
2023-01-19T08:45:42.765Z,1000.72
2023-01-19T08:46:42.814Z,1000.73
2023-01-19T08:47:42.799Z,1000.74
2023-01-19T08:48:42.739Z,1000.70
2023-01-19T08:49:42.738Z,1000.73
2023-01-19T08:50:42.741Z,1000.75
2023-01-19T08:51:42.827Z,1000.75
2023-01-19T08:52:42.798Z,1000.76
2023-01-19T08:53:42.714Z,1000.75
2023-01-19T08:54:42.738Z,1000.77
2023-01-19T08:55:42.730Z,1000.78
2023-01-19T08:56:42.706Z,1000.78
2023-01-19T08:57:42.712Z,1000.79
2023-01-19T08:58:42.698Z,1000.84
2023-01-19T08:59:42.707Z,1000.81
2023-01-19T09:00:42.719Z,1000.85
2023-01-19T09:01:42.792Z,1000.84
2023-01-19T09:02:42.711Z,1000.86
2023-01-19T09:03:42.673Z,1000.85
2023-01-19T09:04:42.667Z,1000.86
2023-01-19T09:05:42.666Z,1000.90
2023-01-19T09:06:42.680Z,1000.85
2023-01-19T09:07:42.675Z,1000.91
2023-01-19T09:08:42.661Z,1000.86
2023-01-19T09:09:42.648Z,1000.91
2023-01-19T09:10:42.637Z,1000.92
2023-01-19T09:11:42.641Z,1000.95
2023-01-19T09:12:42.729Z,1000.94
2023-01-19T09:13:42.639Z,1000.93
2023-01-19T09:14:42.613Z,1000.98
2023-01-19T09:15:42.636Z,1000.92
2023-01-19T09:16:42.607Z,1000.97
2023-01-19T09:17:42.604Z,1000.91
2023-01-19T09:18:42.595Z,1000.96
2023-01-19T09:19:42.588Z,1000.95
2023-01-19T09:20:42.656Z,1000.93
2023-01-19T09:21:42.592Z,1000.97
2023-01-19T09:22:42.613Z,1000.93
2023-01-19T09:23:42.591Z,1000.97
2023-01-19T09:24:42.581Z,1001.00
2023-01-19T09:25:42.568Z,1000.98
2023-01-19T09:26:42.580Z,1001.01
2023-01-19T09:27:42.562Z,1000.97
2023-01-19T09:28:42.544Z,1001.00
2023-01-19T09:29:42.549Z,1000.99
2023-01-19T09:30:42.635Z,1000.97
2023-01-19T09:31:42.571Z,1000.96
2023-01-19T09:32:42.596Z,1000.98
2023-01-19T09:33:42.523Z,1001.02
2023-01-19T09:34:42.530Z,1001.03
2023-01-19T09:35:42.530Z,1001.04
2023-01-19T09:36:42.512Z,1001.06
2023-01-19T09:37:42.512Z,1001.10
2023-01-19T09:38:42.499Z,1001.05
2023-01-19T09:39:42.579Z,1001.12
2023-01-19T09:40:42.538Z,1001.10
2023-01-19T09:41:42.477Z,1001.09
2023-01-19T09:42:42.486Z,1001.09
2023-01-19T09:43:42.472Z,1001.10
2023-01-19T09:44:42.524Z,1001.12
2023-01-19T09:45:42.521Z,1001.10
2023-01-19T09:46:42.503Z,1001.14
2023-01-19T09:47:42.452Z,1001.10
2023-01-19T09:48:42.435Z,1001.13
2023-01-19T09:49:42.451Z,1001.13
2023-01-19T09:50:44.100Z,1001.16
2023-01-19T09:51:42.445Z,1001.14
2023-01-19T09:52:42.444Z,1001.20
2023-01-19T09:53:42.434Z,1001.19
2023-01-19T09:54:42.421Z,1001.23
2023-01-19T09:55:42.452Z,1001.27
2023-01-19T09:56:42.439Z,1001.32
2023-01-19T09:57:42.422Z,1001.29
2023-01-19T09:58:42.397Z,1001.23
2023-01-19T09:59:42.419Z,1001.30
2023-01-19T10:00:42.410Z,1001.26
2023-01-19T10:01:42.390Z,1001.34
2023-01-19T10:02:42.541Z,1001.33
2023-01-19T10:03:42.386Z,1001.35
2023-01-19T10:04:42.356Z,1001.41
2023-01-19T10:05:42.363Z,1001.39
2023-01-19T10:06:42.359Z,1001.40
2023-01-19T10:07:42.344Z,1001.39
2023-01-19T10:08:42.335Z,1001.40
2023-01-19T10:09:42.343Z,1001.40
2023-01-19T10:10:42.333Z,1001.39
2023-01-19T10:11:52.632Z,1001.45
2023-01-19T10:12:42.325Z,1001.43
2023-01-19T10:13:42.310Z,1001.45
2023-01-19T10:14:42.308Z,1001.45
2023-01-19T10:15:42.321Z,1001.48
2023-01-19T10:16:42.309Z,1001.50
2023-01-19T10:17:42.302Z,1001.50
2023-01-19T10:18:42.292Z,1001.53
2023-01-19T10:19:42.290Z,1001.50
2023-01-19T10:20:42.278Z,1001.51
2023-01-19T10:21:42.276Z,1001.56
2023-01-19T10:22:42.274Z,1001.52
2023-01-19T10:23:42.282Z,1001.52
2023-01-19T10:24:42.265Z,1001.52
2023-01-19T10:25:42.284Z,1001.54
2023-01-19T10:26:42.278Z,1001.56
2023-01-19T10:27:42.263Z,1001.52
2023-01-19T10:28:42.260Z,1001.52
2023-01-19T10:29:42.255Z,1001.52
2023-01-19T10:30:42.255Z,1001.48
2023-01-19T10:31:42.352Z,1001.55
2023-01-19T10:32:42.263Z,1001.50
2023-01-19T10:33:42.228Z,1001.52
2023-01-19T10:34:42.202Z,1001.53
2023-01-19T10:35:42.204Z,1001.59
2023-01-19T10:36:42.198Z,1001.58
2023-01-19T10:37:42.219Z,1001.53
2023-01-19T10:38:42.179Z,1001.60
2023-01-19T10:39:42.203Z,1001.56
2023-01-19T10:40:42.169Z,1001.58
2023-01-19T10:41:42.203Z,1001.59
2023-01-19T10:42:42.201Z,1001.60
2023-01-19T10:43:42.241Z,1001.58
2023-01-19T10:44:42.169Z,1001.60
2023-01-19T10:45:42.206Z,1001.60
2023-01-19T10:46:42.143Z,1001.56
2023-01-19T10:47:42.158Z,1001.56
2023-01-19T10:48:42.277Z,1001.59
2023-01-19T10:49:42.127Z,1001.61
2023-01-19T10:50:42.158Z,1001.63
2023-01-19T10:51:42.127Z,1001.62
2023-01-19T10:52:42.185Z,1001.61
2023-01-19T10:53:42.116Z,1001.65
2023-01-19T10:54:42.125Z,1001.63
2023-01-19T10:55:42.099Z,1001.64
2023-01-19T10:56:42.163Z,1001.62
2023-01-19T10:57:42.134Z,1001.65
2023-01-19T10:58:42.169Z,1001.60
2023-01-19T10:59:42.107Z,1001.60
2023-01-19T11:00:42.154Z,1001.62
2023-01-19T11:01:42.158Z,1001.63
2023-01-19T11:02:42.135Z,1001.60
2023-01-19T11:03:42.085Z,1001.62
2023-01-19T11:04:42.083Z,1001.64
2023-01-19T11:05:42.087Z,1001.65
2023-01-19T11:06:42.232Z,1001.66
2023-01-19T11:07:42.048Z,1001.66
2023-01-19T11:08:42.028Z,1001.63
2023-01-19T11:09:42.045Z,1001.70
2023-01-19T11:10:42.042Z,1001.70
2023-01-19T11:11:42.068Z,1001.68
2023-01-19T11:12:42.013Z,1001.66
2023-01-19T11:13:42.033Z,1001.67
2023-01-19T11:14:42.014Z,1001.67
2023-01-19T11:15:42.025Z,1001.61
2023-01-19T11:16:42.018Z,1001.67
2023-01-19T11:17:42.015Z,1001.64
2023-01-19T11:18:42.001Z,1001.64
2023-01-19T11:19:41.980Z,1001.59
2023-01-19T11:20:41.982Z,1001.62
2023-01-19T11:21:42.131Z,1001.61
2023-01-19T11:22:41.993Z,1001.63
2023-01-19T11:23:41.997Z,1001.65
2023-01-19T11:24:41.961Z,1001.62
2023-01-19T11:25:41.968Z,1001.59
2023-01-19T11:26:41.950Z,1001.61
2023-01-19T11:27:41.937Z,1001.65
2023-01-19T11:28:44.798Z,1001.65
2023-01-19T11:29:41.948Z,1001.61
2023-01-19T11:30:41.943Z,1001.62
2023-01-19T11:31:42.052Z,1001.63
2023-01-19T11:32:41.920Z,1001.66
2023-01-19T11:33:41.912Z,1001.63
2023-01-19T11:34:41.913Z,1001.63
2023-01-19T11:35:41.903Z,1001.62
2023-01-19T11:36:41.907Z,1001.63
2023-01-19T11:37:41.903Z,1001.59
2023-01-19T11:38:41.901Z,1001.63
2023-01-19T11:39:41.886Z,1001.61
2023-01-19T11:41:23.742Z,1001.63
2023-01-19T11:42:23.750Z,1001.59
2023-01-19T11:43:23.757Z,1001.57
2023-01-19T11:44:23.730Z,1001.59
2023-01-19T11:45:23.734Z,1001.63
2023-01-19T11:46:23.727Z,1001.60
2023-01-19T11:47:23.750Z,1001.67
2023-01-19T11:48:23.710Z,1001.64
2023-01-19T11:49:23.703Z,1001.63
2023-01-19T11:50:23.755Z,1001.70
2023-01-19T11:51:23.717Z,1001.69
2023-01-19T11:52:23.686Z,1001.68
2023-01-19T11:53:23.676Z,1001.67
2023-01-19T11:54:23.831Z,1001.67
2023-01-19T11:55:23.681Z,1001.69
2023-01-19T11:56:23.675Z,1001.75
2023-01-19T11:57:23.669Z,1001.67
2023-01-19T11:58:23.675Z,1001.64
2023-01-19T11:59:23.646Z,1001.69
2023-01-19T12:00:23.651Z,1001.69
2023-01-19T12:01:23.711Z,1001.64
2023-01-19T12:02:23.646Z,1001.66
2023-01-19T12:03:23.708Z,1001.65
2023-01-19T12:04:23.623Z,1001.64
2023-01-19T12:05:23.637Z,1001.66
2023-01-19T12:06:23.609Z,1001.65
2023-01-19T12:07:23.630Z,1001.65
2023-01-19T12:08:23.987Z,1001.62
2023-01-19T12:09:23.597Z,1001.66
2023-01-19T12:10:23.593Z,1001.71
2023-01-19T12:11:23.602Z,1001.69
2023-01-19T12:12:23.587Z,1001.68
2023-01-19T12:13:23.593Z,1001.72
2023-01-19T12:14:23.615Z,1001.74
2023-01-19T12:15:23.581Z,1001.74
2023-01-19T12:16:23.608Z,1001.75
2023-01-19T12:17:23.569Z,1001.77
2023-01-19T12:18:23.549Z,1001.77
2023-01-19T12:19:23.573Z,1001.78
2023-01-19T12:20:23.541Z,1001.78